Time;durP1;ratioP1;P1;durP2;ratioP2;P2;SDS_P1;SDS_P2;PMS_P1;PMS_P2;Temp;Humidity;BMP_temperature;BMP_pressure;BME280_temperature;BME280_humidity;BME280_pressure;Samples;Min_cycle;Max_cycle;Signal;HPM_P1;HPM_P2
2022/07/17 00:04:10;;;;;;;4.05;1.92;;;24.20;52.30;;;;;;10174137;28;20203;-58
2022/07/17 00:09:00;;;;;;;2.42;1.40;;;24.00;52.50;;;;;;10178335;28;20082;-59
2022/07/17 00:13:53;;;;;;;2.17;1.63;;;24.00;52.50;;;;;;10178261;28;20452;-60
2022/07/17 00:18:43;;;;;;;2.92;1.95;;;23.80;52.70;;;;;;10177078;28;20107;-60
2022/07/17 00:23:34;;;;;;;2.17;1.60;;;23.90;52.60;;;;;;10178121;28;20549;-60
2022/07/17 00:28:25;;;;;;;3.60;1.90;;;23.70;52.80;;;;;;10177907;28;20020;-60
2022/07/17 00:33:16;;;;;;;2.47;1.70;;;23.70;52.90;;;;;;10177745;28;20052;-61
2022/07/17 00:38:06;;;;;;;2.88;1.88;;;23.50;53.10;;;;;;10177854;28;20530;-60
2022/07/17 00:42:57;;;;;;;2.33;1.58;;;23.30;53.30;;;;;;10174765;28;20032;-60
2022/07/17 00:47:55;;;;;;;2.25;1.42;;;23.40;53.40;;;;;;10177973;28;20024;-61
2022/07/17 00:52:46;;;;;;;2.05;1.80;;;23.50;53.10;;;;;;10177158;28;20012;-59
2022/07/17 00:57:39;;;;;;;3.38;1.80;;;23.30;53.30;;;;;;10175756;28;20532;-59
2022/07/17 01:02:29;;;;;;;2.17;1.80;;;23.20;53.60;;;;;;10176551;28;20021;-60
2022/07/17 01:07:20;;;;;;;1.73;1.60;;;23.20;53.40;;;;;;10176983;28;20028;-60
2022/07/17 01:12:11;;;;;;;3.88;1.60;;;23.00;53.70;;;;;;10172757;28;20406;-60
2022/07/17 01:17:02;;;;;;;2.30;1.58;;;22.90;53.80;;;;;;10179567;28;20027;-59
2022/07/17 01:21:52;;;;;;;2.03;1.60;;;22.80;53.80;;;;;;10184387;28;20395;-60
2022/07/17 01:26:45;;;;;;;2.85;1.85;;;22.90;53.80;;;;;;10179244;28;20032;-59
2022/07/17 01:31:36;;;;;;;3.97;1.52;;;22.90;53.60;;;;;;10184090;28;20060;-60
2022/07/17 01:36:27;;;;;;;2.08;1.88;;;22.80;53.80;;;;;;10180404;28;20235;-60
2022/07/17 01:41:18;;;;;;;1.95;1.33;;;22.80;53.60;;;;;;10174137;28;20716;-60
2022/07/17 01:46:08;;;;;;;4.38;1.80;;;22.80;53.40;;;;;;10180095;28;20077;-59
2022/07/17 01:50:59;;;;;;;1.20;1.10;;;22.70;53.60;;;;;;10182812;28;20047;-60
2022/07/17 01:55:50;;;;;;;2.60;1.55;;;22.60;53.50;;;;;;10180427;28;20055;-60
2022/07/17 02:00:41;;;;;;;3.60;1.50;;;22.60;53.60;;;;;;10183393;28;20062;-60
2022/07/17 02:05:31;;;;;;;2.40;1.88;;;22.60;53.30;;;;;;10183041;28;20553;-61
2022/07/17 02:10:23;;;;;;;3.00;1.25;;;22.40;53.50;;;;;;10178497;28;20099;-60
2022/07/17 02:15:14;;;;;;;2.22;1.60;;;22.50;53.40;;;;;;10183116;28;20085;-59
2022/07/17 02:20:06;;;;;;;2.40;1.20;;;22.60;53.20;;;;;;10180477;28;20028;-60
2022/07/17 02:24:57;;;;;;;1.65;1.20;;;22.40;53.10;;;;;;10183238;28;20555;-60
2022/07/17 02:29:48;;;;;;;3.75;2.05;;;22.40;53.30;;;;;;10181725;28;20031;-59
2022/07/17 02:34:38;;;;;;;1.65;1.42;;;22.30;53.20;;;;;;10181643;28;20048;-59
2022/07/17 02:39:29;;;;;;;2.90;1.30;;;22.20;53.40;;;;;;10178940;28;20020;-60
2022/07/17 02:44:19;;;;;;;2.00;1.50;;;22.20;53.50;;;;;;10181415;28;20042;-61
2022/07/17 02:49:10;;;;;;;3.55;1.40;;;22.20;53.50;;;;;;10178449;28;20203;-60
2022/07/17 02:54:01;;;;;;;2.08;1.40;;;22.10;53.50;;;;;;10183324;28;20299;-61
2022/07/17 02:58:51;;;;;;;2.45;1.08;;;22.10;53.60;;;;;;10179334;28;20716;-61
2022/07/17 03:03:42;;;;;;;4.38;1.85;;;21.80;54.10;;;;;;10179656;28;20490;-60
2022/07/17 03:08:33;;;;;;;2.63;1.50;;;21.70;54.20;;;;;;10179253;28;20504;-60
2022/07/17 03:13:23;;;;;;;1.48;1.27;;;21.50;54.40;;;;;;10179620;28;20455;-59
2022/07/17 03:18:14;;;;;;;2.03;1.27;;;21.50;54.60;;;;;;10176289;28;20355;-60
2022/07/17 03:23:05;;;;;;;1.35;1.10;;;21.40;54.70;;;;;;10180457;28;20035;-60
2022/07/17 03:27:55;;;;;;;2.17;1.35;;;21.40;54.80;;;;;;10179631;28;20040;-61
2022/07/17 03:32:46;;;;;;;2.03;0.93;;;21.50;54.70;;;;;;10175631;28;20043;-60
2022/07/17 03:37:40;;;;;;;2.28;1.23;;;21.40;55.10;;;;;;10179187;28;20065;-60
2022/07/17 03:42:30;;;;;;;3.95;1.30;;;21.20;55.10;;;;;;10178854;28;20556;-61
2022/07/17 03:47:21;;;;;;;2.22;1.30;;;21.30;55.00;;;;;;10177078;28;20032;-59
2022/07/17 03:52:11;;;;;;;2.47;1.70;;;21.30;55.30;;;;;;10178839;28;20055;-59
2022/07/17 03:57:02;;;;;;;1.60;1.25;;;21.20;55.30;;;;;;10179277;28;20028;-59
2022/07/17 04:01:53;;;;;;;2.38;1.38;;;21.30;55.80;;;;;;10175308;28;20020;-59
2022/07/17 04:06:44;;;;;;;1.33;1.10;;;21.10;55.40;;;;;;10178415;28;20119;-60
2022/07/17 04:11:34;;;;;;;3.03;1.70;;;20.80;56.10;;;;;;10179948;28;20016;-61
2022/07/17 04:16:25;;;;;;;3.33;1.38;;;20.80;56.00;;;;;;10191155;28;20127;-60
2022/07/17 04:21:16;;;;;;;2.45;1.35;;;20.70;55.80;;;;;;10177655;28;20020;-60
2022/07/17 04:26:06;;;;;;;2.88;1.60;;;20.90;55.90;;;;;;10175607;28;20119;-58
2022/07/17 04:30:57;;;;;;;2.92;1.40;;;20.80;56.20;;;;;;10170099;28;20299;-58
2022/07/17 04:35:48;;;;;;;3.38;1.88;;;20.50;56.50;;;;;;10177176;28;20040;-60
2022/07/17 04:40:39;;;;;;;2.58;1.65;;;20.40;56.90;;;;;;10176831;28;20081;-60
2022/07/17 04:45:30;;;;;;;2.63;1.98;;;20.40;56.60;;;;;;10173886;28;20023;-60
2022/07/17 04:50:21;;;;;;;2.50;1.75;;;20.40;56.80;;;;;;10191534;28;20093;-58
2022/07/17 04:55:12;;;;;;;1.35;1.05;;;20.50;56.70;;;;;;10177327;28;20102;-60
2022/07/17 05:00:05;;;;;;;5.68;1.80;;;20.30;57.00;;;;;;10175444;28;20024;-59
2022/07/17 05:04:56;;;;;;;1.63;1.25;;;20.30;57.10;;;;;;10170025;28;20033;-61
2022/07/17 05:09:46;;;;;;;3.28;1.77;;;20.40;57.00;;;;;;10166031;28;20102;-60
2022/07/17 05:14:37;;;;;;;3.38;1.85;;;20.60;56.60;;;;;;10170137;28;20056;-60
2022/07/17 05:19:28;;;;;;;2.20;1.27;;;20.70;56.30;;;;;;10171995;28;20032;-60
2022/07/17 05:24:18;;;;;;;3.53;1.30;;;20.60;56.70;;;;;;10175689;28;20387;-60
2022/07/17 05:29:09;;;;;;;3.33;1.70;;;20.70;56.80;;;;;;10176198;28;20608;-59
2022/07/17 05:34:00;;;;;;;3.13;1.23;;;20.90;56.60;;;;;;10175836;28;20123;-59
2022/07/17 05:38:50;;;;;;;2.42;1.50;;;20.60;57.00;;;;;;10171229;28;20040;-59
2022/07/17 05:43:41;;;;;;;3.63;1.50;;;20.70;56.90;;;;;;10175697;28;20028;-60
2022/07/17 05:48:32;;;;;;;2.55;1.20;;;20.70;57.00;;;;;;10175262;28;20043;-59
2022/07/17 05:53:23;;;;;;;2.58;1.50;;;20.60;57.30;;;;;;10175554;28;20497;-59
2022/07/17 05:58:13;;;;;;;2.17;1.52;;;20.60;57.40;;;;;;10175160;28;20036;-59
2022/07/17 06:03:05;;;;;;;3.17;1.40;;;20.60;57.40;;;;;;10180400;28;20352;-59
2022/07/17 06:07:57;;;;;;;1.33;0.93;;;20.50;57.60;;;;;;10181653;28;20500;-59
2022/07/17 06:12:48;;;;;;;3.35;2.47;;;20.50;57.90;;;;;;10182078;28;20253;-59
2022/07/17 06:17:38;;;;;;;1.55;1.27;;;20.70;57.70;;;;;;10182302;28;20326;-60
2022/07/17 06:22:29;;;;;;;2.10;1.67;;;20.70;57.80;;;;;;10180164;28;20157;-59
2022/07/17 06:27:20;;;;;;;1.73;1.35;;;20.90;57.60;;;;;;10182779;28;20059;-59
2022/07/17 06:32:10;;;;;;;1.20;1.10;;;21.10;57.50;;;;;;10183085;28;20040;-59
2022/07/17 06:37:01;;;;;;;1.30;1.20;;;21.20;57.90;;;;;;10174137;28;20508;-60
2022/07/17 06:41:52;;;;;;;2.00;1.80;;;21.30;57.20;;;;;;10181523;28;20042;-60
2022/07/17 06:46:42;;;;;;;2.97;1.42;;;21.20;57.50;;;;;;10181593;28;20035;-60
2022/07/17 06:51:33;;;;;;;1.80;1.33;;;21.20;57.60;;;;;;10180830;28;20028;-60
2022/07/17 06:56:23;;;;;;;2.28;1.25;;;21.30;57.30;;;;;;10181065;28;20618;-59
2022/07/17 07:01:14;;;;;;;1.55;1.27;;;21.40;57.40;;;;;;10180142;28;20020;-60
2022/07/17 07:06:05;;;;;;;1.63;1.50;;;21.50;57.40;;;;;;10177027;28;20036;-59
2022/07/17 07:10:56;;;;;;;2.20;1.30;;;21.60;57.20;;;;;;10180033;28;20020;-60
2022/07/17 07:15:46;;;;;;;2.15;1.50;;;21.60;57.20;;;;;;10179095;28;20055;-60
2022/07/17 07:20:37;;;;;;;2.10;1.35;;;21.90;56.90;;;;;;10176544;28;20024;-59
2022/07/17 07:25:28;;;;;;;1.83;1.20;;;21.90;56.90;;;;;;10180098;28;20024;-60
2022/07/17 07:30:19;;;;;;;3.42;1.48;;;22.00;56.70;;;;;;10175068;28;20025;-61
2022/07/17 07:35:10;;;;;;;3.47;1.58;;;22.10;56.60;;;;;;10179090;28;20048;-59
2022/07/17 07:40:01;;;;;;;2.95;1.45;;;22.30;56.40;;;;;;10179052;28;20046;-59
2022/07/17 07:44:52;;;;;;;3.25;1.42;;;22.40;56.30;;;;;;10176212;28;20016;-59
2022/07/17 07:49:43;;;;;;;2.30;1.10;;;22.50;56.40;;;;;;10179395;28;20050;-60
2022/07/17 07:54:33;;;;;;;2.13;1.33;;;22.40;56.40;;;;;;10178889;28;20444;-60
2022/07/17 07:59:24;;;;;;;4.35;1.38;;;22.60;56.00;;;;;;10171886;28;20020;-61
2022/07/17 08:04:15;;;;;;;1.92;1.40;;;22.60;56.10;;;;;;10178651;28;20486;-60
2022/07/17 08:09:06;;;;;;;1.52;1.40;;;22.60;56.20;;;;;;10177923;28;20059;-60
2022/07/17 08:13:57;;;;;;;2.97;1.67;;;22.90;56.00;;;;;;10177154;28;20081;-60
2022/07/17 08:18:47;;;;;;;2.88;1.27;;;22.90;55.80;;;;;;10177391;28;20036;-60
2022/07/17 08:23:38;;;;;;;1.77;1.25;;;22.90;55.80;;;;;;10177995;28;20020;-60
2022/07/17 08:28:28;;;;;;;3.50;1.60;;;23.00;56.20;;;;;;10174645;28;20024;-60
2022/07/17 08:33:19;;;;;;;1.42;1.30;;;23.10;55.50;;;;;;10177240;28;20048;-59
2022/07/17 08:38:10;;;;;;;1.42;1.20;;;23.10;55.60;;;;;;10176552;28;20046;-59
2022/07/17 08:43:03;;;;;;;1.90;1.25;;;23.30;55.30;;;;;;10169690;28;20432;-59
2022/07/17 08:47:55;;;;;;;2.65;1.85;;;23.40;55.20;;;;;;10176675;28;20032;-59
2022/07/17 08:52:46;;;;;;;3.03;1.70;;;23.50;55.10;;;;;;10176756;28;20028;-60
2022/07/17 08:57:39;;;;;;;1.92;1.67;;;23.80;54.80;;;;;;10174274;28;20036;-59
2022/07/17 09:02:30;;;;;;;1.88;1.30;;;23.80;54.70;;;;;;10176811;28;20487;-59
2022/07/17 09:07:20;;;;;;;2.03;1.80;;;23.80;54.70;;;;;;10175594;28;20483;-59
2022/07/17 09:12:11;;;;;;;1.90;1.70;;;24.00;54.60;;;;;;10173665;28;20026;-60
2022/07/17 09:17:04;;;;;;;3.00;1.88;;;24.10;55.00;;;;;;10175716;28;20040;-60
2022/07/17 09:22:15;;;;;;;2.85;1.42;;;24.20;54.20;;;;;;10175675;28;20343;-59
2022/07/17 09:27:05;;;;;;;2.15;1.40;;;24.20;54.10;;;;;;10171062;28;20036;-59
2022/07/17 09:31:56;;;;;;;5.32;3.03;;;24.40;54.00;;;;;;10175749;28;20035;-60
2022/07/17 09:37:01;;;;;;;3.97;1.48;;;24.60;53.60;;;;;;10179986;28;20038;-59
2022/07/17 09:41:51;;;;;;;2.58;2.10;;;24.80;53.40;;;;;;10184958;28;20028;-59
2022/07/17 09:46:42;;;;;;;6.45;3.75;;;24.90;53.50;;;;;;10183895;28;20036;-60
2022/07/17 09:51:38;;;;;;;3.95;2.30;;;25.00;53.30;;;;;;10179426;28;20020;-60
2022/07/17 09:56:31;;;;;;;3.67;1.33;;;25.20;53.10;;;;;;10183680;28;20455;-59
2022/07/17 10:01:23;;;;;;;2.47;1.90;;;25.20;53.10;;;;;;10182627;28;20020;-60
2022/07/17 10:06:13;;;;;;;7.20;3.22;;;25.30;52.80;;;;;;10175701;28;20024;-59
2022/07/17 10:11:06;;;;;;;4.38;1.95;;;25.50;52.60;;;;;;10183688;28;20024;-59
2022/07/17 10:15:58;;;;;;;6.53;3.17;;;25.50;52.40;;;;;;10182782;28;20553;-60
2022/07/17 10:20:49;;;;;;;5.88;2.95;;;25.60;52.30;;;;;;10179589;28;20055;-59
2022/07/17 10:25:40;;;;;;;3.15;2.15;;;25.70;52.00;;;;;;10181625;28;20520;-60
2022/07/17 10:30:34;;;;;;;2.22;1.55;;;25.70;51.90;;;;;;10182402;28;20089;-60
2022/07/17 10:35:26;;;;;;;3.43;2.23;;;25.80;51.80;;;;;;10179372;28;20098;-59
2022/07/17 10:40:28;;;;;;;5.55;1.52;;;25.90;51.60;;;;;;10181262;28;20390;-60
2022/07/17 10:45:20;;;;;;;4.78;2.20;;;26.10;51.40;;;;;;10180828;28;20134;-54
2022/07/17 10:50:11;;;;;;;3.15;2.17;;;26.10;51.10;;;;;;10179723;28;20799;-54
2022/07/17 10:55:04;;;;;;;2.72;2.10;;;26.10;50.90;;;;;;10178963;28;20072;-55
2022/07/17 10:59:55;;;;;;;3.58;2.03;;;26.20;50.40;;;;;;10193497;28;20028;-56
2022/07/17 11:04:46;;;;;;;2.67;1.73;;;26.40;50.20;;;;;;10176316;28;20038;-53
2022/07/17 11:09:47;;;;;;;3.75;1.50;;;26.50;50.00;;;;;;10179508;28;20024;-52
2022/07/17 11:14:38;;;;;;;2.15;1.60;;;26.50;49.50;;;;;;10179071;28;20096;-57
2022/07/17 11:19:31;;;;;;;3.17;1.58;;;26.70;49.40;;;;;;10174901;28;20096;-59
2022/07/17 11:24:22;;;;;;;2.47;1.65;;;26.70;49.30;;;;;;10179956;28;20028;-62
2022/07/17 11:29:14;;;;;;;2.30;1.65;;;26.90;49.20;;;;;;10182248;28;20513;-59
2022/07/17 11:34:08;;;;;;;3.22;1.42;;;27.00;49.00;;;;;;10169396;28;20048;-55
2022/07/17 11:39:00;;;;;;;;;;;27.10;48.80;;;;;;10178963;28;20040;-62
2022/07/17 11:43:51;;;;;;;1.73;1.50;;;27.10;48.40;;;;;;10179837;28;20361;-56
2022/07/17 11:48:45;;;;;;;1.95;1.60;;;27.10;48.60;;;;;;10174611;28;20030;-61
2022/07/17 11:53:37;;;;;;;1.88;1.63;;;27.10;48.40;;;;;;10178177;28;20036;-63
2022/07/17 11:58:28;;;;;;;3.55;2.40;;;27.30;48.20;;;;;;10178001;28;20043;-60
2022/07/17 12:03:25;;;;;;;3.78;1.65;;;27.40;47.80;;;;;;10178963;28;20054;-57
2022/07/17 12:08:19;;;;;;;2.53;1.70;;;27.40;47.20;;;;;;10173508;28;20416;-54
2022/07/17 12:13:10;;;;;;;3.20;1.38;;;27.60;47.00;;;;;;10168899;28;20024;-56
2022/07/17 12:18:01;;;;;;;1.95;1.60;;;27.80;46.80;;;;;;10177843;28;20044;-56
2022/07/17 12:22:52;;;;;;;2.40;1.52;;;28.20;46.70;;;;;;10179312;28;20012;-50
2022/07/17 12:27:43;;;;;;;1.95;1.40;;;28.70;46.70;;;;;;10168415;28;20074;-57
2022/07/17 12:32:41;;;;;;;4.50;2.60;;;28.90;46.70;;;;;;10170730;28;20521;-56
2022/07/17 12:37:31;;;;;;;2.80;1.70;;;29.30;47.40;;;;;;10174629;28;20111;-52
2022/07/17 12:42:23;;;;;;;2.28;1.58;;;29.60;46.70;;;;;;10162502;28;20071;-56
2022/07/17 12:47:14;;;;;;;2.13;1.50;;;29.90;46.80;;;;;;10175956;28;20016;-55
2022/07/17 12:52:05;;;;;;;4.68;1.63;;;30.40;46.60;;;;;;10173662;28;20061;-54
2022/07/17 12:56:56;;;;;;;3.58;2.20;;;30.60;46.40;;;;;;10171164;28;20181;-50
2022/07/17 13:01:46;;;;;;;1.90;1.75;;;31.30;45.80;;;;;;10173985;28;20166;-52
2022/07/17 13:06:37;;;;;;;2.40;1.33;;;31.50;45.00;;;;;;10176616;28;20431;-48
2022/07/17 13:11:28;;;;;;;1.93;1.53;;;32.10;44.40;;;;;;10174959;28;20020;-57
2022/07/17 13:16:19;;;;;;;1.37;1.27;;;33.10;43.30;;;;;;10176346;28;20057;-65
2022/07/17 13:21:10;;;;;;;1.63;1.35;;;33.70;42.10;;;;;;10176309;28;20023;-66
2022/07/17 13:26:02;;;;;;;1.83;1.25;;;34.40;41.30;;;;;;10172805;28;20025;-60
2022/07/17 13:30:52;;;;;;;1.45;1.30;;;35.30;41.10;;;;;;10175638;28;20361;-61
2022/07/17 13:35:43;;;;;;;;;;;35.20;39.40;;;;;;10174985;28;20471;-57
2022/07/17 13:40:35;;;;;;;2.60;1.43;;;35.90;38.60;;;;;;10169889;28;19911;-55
2022/07/17 13:45:25;;;;;;;2.28;1.35;;;36.60;39.20;;;;;;10175428;28;20025;-55
2022/07/17 13:50:16;;;;;;;4.20;1.20;;;36.50;38.40;;;;;;10175447;28;20028;-56
2022/07/17 13:55:08;;;;;;;3.42;1.40;;;36.60;38.60;;;;;;10179275;28;20038;-57
2022/07/17 14:00:00;;;;;;;2.20;1.40;;;37.20;37.20;;;;;;10176256;28;20024;-54
2022/07/17 14:04:51;;;;;;;1.30;1.20;;;37.30;36.70;;;;;;10175445;28;20487;-57
2022/07/17 14:09:41;;;;;;;2.33;1.30;;;37.70;36.10;;;;;;10175462;28;20020;-59
2022/07/17 14:14:32;;;;;;;2.65;1.42;;;38.30;35.60;;;;;;10175354;28;20036;-65
2022/07/17 14:19:24;;;;;;;1.38;1.25;;;38.30;34.90;;;;;;10173501;28;20097;-55
2022/07/17 14:24:14;;;;;;;1.92;1.27;;;38.10;34.60;;;;;;10180269;28;20024;-53
2022/07/17 14:29:05;;;;;;;2.25;1.55;;;38.30;34.30;;;;;;10181848;28;20032;-64
2022/07/17 14:33:56;;;;;;;1.20;1.10;;;39.00;33.80;;;;;;10180964;28;20512;-59
2022/07/17 14:38:46;;;;;;;2.03;1.50;;;38.30;33.60;;;;;;10182101;28;20437;-61
2022/07/17 14:43:37;;;;;;;2.60;1.20;;;37.90;33.00;;;;;;10182124;28;20028;-64
2022/07/17 14:48:28;;;;;;;1.55;1.30;;;37.90;32.60;;;;;;10178258;28;20028;-60
2022/07/17 14:53:18;;;;;;;1.25;1.00;;;37.90;32.20;;;;;;10181708;28;20028;-59
2022/07/17 14:58:09;;;;;;;1.35;1.17;;;38.20;31.90;;;;;;10181202;28;20046;-55
2022/07/17 15:02:59;;;;;;;3.10;1.20;;;38.30;31.60;;;;;;10176747;28;20505;-57
2022/07/17 15:07:50;;;;;;;1.50;0.98;;;38.30;31.20;;;;;;10181568;28;20028;-54
2022/07/17 15:12:41;;;;;;;1.30;1.17;;;38.30;31.00;;;;;;10183458;28;20465;-53
2022/07/17 15:17:31;;;;;;;2.58;1.33;;;38.50;30.70;;;;;;10180676;28;20040;-50
2022/07/17 15:22:22;;;;;;;1.50;1.10;;;38.10;30.70;;;;;;10180144;28;20199;-51
2022/07/17 15:27:13;;;;;;;1.30;1.20;;;38.00;30.50;;;;;;10179760;28;20425;-54
2022/07/17 15:32:04;;;;;;;1.88;1.35;;;37.80;30.30;;;;;;10177854;28;20101;-49
2022/07/17 15:36:55;;;;;;;2.25;1.20;;;38.40;30.10;;;;;;10179528;28;20039;-52
2022/07/17 15:41:46;;;;;;;1.25;1.05;;;38.20;30.00;;;;;;10170779;28;20074;-52
2022/07/17 15:46:37;;;;;;;1.27;1.10;;;38.80;29.80;;;;;;10172767;28;20039;-54
2022/07/17 15:51:28;;;;;;;1.67;1.58;;;38.20;30.00;;;;;;10179303;28;20027;-54
2022/07/17 15:56:19;;;;;;;3.28;1.35;;;38.20;29.40;;;;;;10178444;28;20405;-54
2022/07/17 16:01:10;;;;;;;3.20;1.92;;;38.60;29.20;;;;;;10194471;28;20027;-52
2022/07/17 16:06:00;;;;;;;1.75;1.08;;;38.30;29.00;;;;;;10178669;28;20074;-53
2022/07/17 16:10:51;;;;;;;2.00;1.25;;;38.90;28.90;;;;;;10176697;28;20032;-59
2022/07/17 16:15:42;;;;;;;1.27;1.17;;;39.10;28.60;;;;;;10178432;28;20391;-54
2022/07/17 16:20:32;;;;;;;2.45;1.30;;;38.90;28.50;;;;;;10177690;28;20031;-56
2022/07/17 16:25:23;;;;;;;1.80;1.20;;;39.00;28.10;;;;;;10172290;28;20428;-50
2022/07/17 16:30:14;;;;;;;3.75;1.60;;;39.50;28.40;;;;;;10176608;28;20028;-52
2022/07/17 16:35:05;;;;;;;2.45;1.75;;;40.10;27.80;;;;;;10176529;28;20059;-55
2022/07/17 16:39:56;;;;;;;1.60;1.25;;;41.00;28.00;;;;;;10170567;28;20398;-55
2022/07/17 16:44:46;;;;;;;2.60;1.40;;;42.20;27.80;;;;;;10174130;28;20035;-51
2022/07/17 16:49:37;;;;;;;1.60;1.35;;;42.20;27.70;;;;;;10173609;28;20020;-48
2022/07/17 16:54:28;;;;;;;1.70;1.60;;;42.20;27.70;;;;;;10172841;28;20024;-50
2022/07/17 16:59:20;;;;;;;1.30;1.20;;;42.00;27.70;;;;;;10177131;28;20127;-52
2022/07/17 17:04:10;;;;;;;1.63;1.38;;;41.50;27.70;;;;;;10176671;28;20024;-51
2022/07/17 17:09:01;;;;;;;1.98;1.35;;;41.40;27.70;;;;;;10176606;28;20036;-60
2022/07/17 17:13:52;;;;;;;1.77;1.20;;;41.70;27.60;;;;;;10177059;28;20551;-59
2022/07/17 17:18:43;;;;;;;1.92;1.80;;;41.90;27.60;;;;;;10175965;28;20082;-58
2022/07/17 17:23:34;;;;;;;1.80;1.65;;;41.80;27.70;;;;;;10171577;28;20324;-59
2022/07/17 17:28:25;;;;;;;1.63;1.27;;;41.60;27.70;;;;;;10177079;28;20782;-67
2022/07/17 17:33:15;;;;;;;;;;;41.00;28.00;;;;;;10181587;28;20504;-53
2022/07/17 17:38:06;;;;;;;3.33;1.60;;;40.80;27.80;;;;;;10178957;28;20536;-51
2022/07/17 17:42:56;;;;;;;1.67;1.38;;;41.30;27.70;;;;;;10175834;28;20095;-56
2022/07/17 17:47:47;;;;;;;2.88;1.35;;;40.70;27.90;;;;;;10172040;28;20039;-51
2022/07/17 17:52:38;;;;;;;2.50;1.48;;;40.80;28.10;;;;;;10172598;28;20108;-52
2022/07/17 17:57:28;;;;;;;1.45;1.10;;;40.20;28.20;;;;;;10176615;28;20071;-54
2022/07/17 18:02:19;;;;;;;2.93;1.43;;;39.10;28.30;;;;;;10174645;28;20028;-51
2022/07/17 18:07:11;;;;;;;2.97;1.08;;;35.60;29.70;;;;;;10182704;28;20032;-53
2022/07/17 18:12:02;;;;;;;1.88;1.20;;;33.70;31.10;;;;;;10175482;28;20039;-62
2022/07/17 18:16:52;;;;;;;3.67;1.60;;;32.90;30.90;;;;;;10181851;28;20035;-61
2022/07/17 18:21:43;;;;;;;2.90;1.55;;;32.40;31.00;;;;;;10180855;28;20505;-62
2022/07/17 18:26:34;;;;;;;3.97;2.00;;;31.90;31.50;;;;;;10181420;28;20110;-65
2022/07/17 18:31:25;;;;;;;1.77;1.20;;;31.60;31.90;;;;;;10182289;28;20048;-61
2022/07/17 18:36:15;;;;;;;2.55;1.50;;;31.30;32.40;;;;;;10192613;28;20028;-57
2022/07/17 18:41:06;;;;;;;3.13;2.47;;;31.20;32.40;;;;;;10182468;28;20028;-60
2022/07/17 18:45:58;;;;;;;3.90;1.40;;;31.00;32.50;;;;;;10181408;28;20078;-59
2022/07/17 18:50:49;;;;;;;2.42;1.00;;;30.80;32.90;;;;;;10181208;28;20093;-61
2022/07/17 18:55:41;;;;;;;3.25;1.17;;;30.70;33.20;;;;;;10177754;28;20137;-62
2022/07/17 19:00:34;;;;;;;1.50;1.10;;;30.50;33.40;;;;;;10195660;28;20340;-59
2022/07/17 19:05:27;;;;;;;2.63;1.47;;;30.30;33.60;;;;;;10180386;28;20035;-62
2022/07/17 19:10:18;;;;;;;34.50;22.20;;;30.20;33.90;;;;;;10178467;28;20048;-60
2022/07/17 19:15:09;;;;;;;12.77;8.57;;;30.10;34.20;;;;;;10177300;28;20039;-56
2022/07/17 19:19:59;;;;;;;12.90;5.13;;;29.90;34.90;;;;;;10179604;28;20039;-62
2022/07/17 19:24:50;;;;;;;2.70;1.98;;;29.80;35.10;;;;;;10194824;28;20020;-63
2022/07/17 19:29:41;;;;;;;4.22;1.80;;;29.70;35.40;;;;;;10171933;28;20028;-59
2022/07/17 19:34:31;;;;;;;2.58;1.52;;;29.60;35.60;;;;;;10179553;28;20055;-60
2022/07/17 19:39:22;;;;;;;4.35;2.63;;;29.50;35.90;;;;;;10177471;28;20036;-60
2022/07/17 19:44:13;;;;;;;3.45;2.05;;;29.20;36.30;;;;;;10171651;28;20058;-61
2022/07/17 19:49:04;;;;;;;11.02;4.00;;;29.20;36.50;;;;;;10168749;28;20032;-59
2022/07/17 19:53:55;;;;;;;4.35;2.30;;;29.10;36.70;;;;;;10193230;28;20391;-60
2022/07/17 19:58:49;;;;;;;3.20;2.50;;;29.10;36.80;;;;;;10175983;28;20036;-61
2022/07/17 20:03:39;;;;;;;3.20;1.35;;;28.90;37.30;;;;;;10178130;28;20116;-60
2022/07/17 20:08:30;;;;;;;2.50;1.55;;;28.70;37.50;;;;;;10178025;28;20111;-59
2022/07/17 20:13:21;;;;;;;4.35;1.50;;;28.60;37.90;;;;;;10171766;28;20035;-60
2022/07/17 20:18:12;;;;;;;3.40;1.90;;;28.50;37.90;;;;;;10177280;28;20043;-61
2022/07/17 20:23:03;;;;;;;3.08;1.77;;;28.50;38.00;;;;;;10177727;28;20020;-61
2022/07/17 20:27:54;;;;;;;3.58;1.55;;;28.40;38.10;;;;;;10177281;28;20028;-61
2022/07/17 20:32:45;;;;;;;2.22;1.65;;;28.30;38.10;;;;;;10177316;28;20421;-59
2022/07/17 20:37:36;;;;;;;4.03;1.40;;;28.30;38.20;;;;;;10177419;28;20525;-60
2022/07/17 20:42:26;;;;;;;4.50;2.08;;;28.20;38.40;;;;;;10175138;28;20024;-62
2022/07/17 20:47:17;;;;;;;5.82;2.00;;;28.10;38.30;;;;;;10176769;28;20395;-59
2022/07/17 20:52:08;;;;;;;2.67;1.73;;;27.90;38.60;;;;;;10174506;28;20108;-60
2022/07/17 20:56:58;;;;;;;2.53;1.33;;;27.90;38.60;;;;;;10177134;28;20032;-59
2022/07/17 21:01:49;;;;;;;2.97;1.65;;;28.00;38.50;;;;;;10176704;28;20028;-60
2022/07/17 21:06:40;;;;;;;2.60;1.42;;;27.90;38.70;;;;;;10175825;28;20401;-62
2022/07/17 21:11:31;;;;;;;2.08;1.17;;;27.90;38.80;;;;;;10176824;28;20044;-62
2022/07/17 21:16:21;;;;;;;2.83;1.58;;;27.80;38.80;;;;;;10174176;28;20036;-60
2022/07/17 21:21:12;;;;;;;2.72;1.77;;;27.70;38.90;;;;;;10174708;28;20032;-59
2022/07/17 21:26:03;;;;;;;1.63;1.20;;;27.50;39.00;;;;;;10174672;28;20040;-58
2022/07/17 21:30:54;;;;;;;2.88;1.52;;;27.40;39.10;;;;;;10176942;28;20028;-61
2022/07/17 21:35:45;;;;;;;2.30;1.20;;;27.30;39.20;;;;;;10178222;28;20028;-60
2022/07/17 21:40:36;;;;;;;2.58;1.25;;;27.30;39.30;;;;;;10184172;28;20474;-60
2022/07/17 21:45:27;;;;;;;2.13;0.93;;;27.20;39.50;;;;;;10184682;28;20039;-58
2022/07/17 21:50:18;;;;;;;2.35;1.00;;;27.10;39.70;;;;;;10183698;28;20394;-59
2022/07/17 21:55:09;;;;;;;2.83;1.10;;;27.10;39.80;;;;;;10183806;28;20096;-60
2022/07/17 22:00:00;;;;;;;1.23;0.77;;;27.00;39.80;;;;;;10183373;28;20077;-62
2022/07/17 22:04:51;;;;;;;2.08;1.27;;;26.80;40.00;;;;;;10183329;28;20490;-54
2022/07/17 22:09:42;;;;;;;2.38;1.13;;;26.70;40.10;;;;;;10182826;28;20402;-59
2022/07/17 22:14:33;;;;;;;2.72;1.98;;;26.70;40.20;;;;;;10182525;28;20044;-60
2022/07/17 22:19:23;;;;;;;2.55;1.40;;;26.70;40.40;;;;;;10180680;28;20032;-60
2022/07/17 22:24:15;;;;;;;1.98;1.20;;;26.70;40.40;;;;;;10182654;28;20485;-60
2022/07/17 22:29:05;;;;;;;2.38;1.20;;;26.60;40.50;;;;;;10182433;28;20040;-62
2022/07/17 22:33:56;;;;;;;2.42;1.40;;;26.60;40.40;;;;;;10181760;28;20047;-61
2022/07/17 22:38:47;;;;;;;2.05;1.20;;;26.60;40.60;;;;;;10181764;28;20048;-58
2022/07/17 22:43:37;;;;;;;2.67;1.20;;;26.40;40.70;;;;;;10182297;28;20124;-57
2022/07/17 22:48:28;;;;;;;2.53;1.23;;;26.40;40.70;;;;;;10181572;28;20506;-60
2022/07/17 22:53:19;;;;;;;1.83;1.13;;;26.40;40.60;;;;;;10181495;28;20024;-58
2022/07/17 22:58:10;;;;;;;1.48;1.25;;;26.40;40.70;;;;;;10179010;28;20040;-59
2022/07/17 23:03:01;;;;;;;2.33;1.17;;;26.30;40.60;;;;;;10177249;28;20020;-59
2022/07/17 23:07:52;;;;;;;2.03;1.60;;;26.30;40.80;;;;;;10179694;28;20480;-59
2022/07/17 23:12:43;;;;;;;2.45;1.02;;;26.20;40.90;;;;;;10181438;28;20032;-59
2022/07/17 23:17:33;;;;;;;2.08;1.00;;;26.10;41.00;;;;;;10180366;28;20475;-57
2022/07/17 23:22:24;;;;;;;1.50;1.27;;;26.00;41.00;;;;;;10180300;28;20024;-60
2022/07/17 23:27:14;;;;;;;1.48;1.30;;;25.90;40.90;;;;;;10179204;28;20036;-58
2022/07/17 23:32:24;;;;;;;1.25;1.08;;;25.80;41.00;;;;;;10180127;28;20064;-58
2022/07/17 23:37:14;;;;;;;1.83;1.10;;;25.80;41.10;;;;;;10178413;28;20024;-60
2022/07/17 23:42:05;;;;;;;3.40;1.05;;;25.60;41.00;;;;;;10174434;28;21440;-59
2022/07/17 23:46:55;;;;;;;1.98;0.90;;;25.60;41.10;;;;;;10179070;28;20145;-58
2022/07/17 23:51:46;;;;;;;1.77;1.10;;;25.40;41.10;;;;;;10179564;28;20036;-60
2022/07/17 23:56:37;;;;;;;1.95;1.05;;;25.30;41.10;;;;;;10170857;28;20039;-57
